createdAt,value
2017-04-08T00:00:12.802Z,0
2017-04-08T00:00:53.251Z,0
2017-04-08T00:01:33.804Z,0
2017-04-08T00:02:14.242Z,0
2017-04-08T00:02:54.690Z,0
2017-04-08T00:03:35.161Z,0
2017-04-08T00:04:15.642Z,0
2017-04-08T00:04:56.109Z,0
2017-04-08T00:05:36.553Z,0
2017-04-08T00:06:17.016Z,0
2017-04-08T00:06:57.466Z,0
2017-04-08T00:07:37.862Z,0
2017-04-08T00:08:18.378Z,0
2017-04-08T00:08:58.858Z,0
2017-04-08T00:09:39.317Z,0
2017-04-08T00:10:20.505Z,0
2017-04-08T00:11:00.960Z,0
2017-04-08T00:11:41.422Z,0
2017-04-08T00:12:21.882Z,0
2017-04-08T00:13:02.337Z,0
2017-04-08T00:13:42.832Z,0
2017-04-08T00:14:23.304Z,0
2017-04-08T00:15:03.722Z,0
2017-04-08T00:15:44.146Z,0
2017-04-08T00:16:24.679Z,0
2017-04-08T00:17:05.147Z,0
2017-04-08T00:17:45.551Z,0
2017-04-08T00:18:26.035Z,0
2017-04-08T00:19:06.513Z,0
2017-04-08T00:19:46.913Z,0
2017-04-08T00:20:27.451Z,0
2017-04-08T00:21:07.927Z,0
2017-04-08T00:21:48.379Z,0
2017-04-08T00:22:28.859Z,0
2017-04-08T00:23:09.340Z,0
2017-04-08T00:23:49.778Z,0
2017-04-08T00:24:30.227Z,0
2017-04-08T00:25:10.685Z,0
2017-04-08T00:25:51.150Z,0
2017-04-08T00:26:31.606Z,0
2017-04-08T00:27:12.068Z,0
2017-04-08T00:27:52.542Z,0
2017-04-08T00:28:33.843Z,0
2017-04-08T00:29:14.239Z,0
2017-04-08T00:29:55.484Z,0
2017-04-08T00:30:35.979Z,0
2017-04-08T00:31:16.443Z,0
2017-04-08T00:31:56.885Z,0
2017-04-08T00:32:37.336Z,0
2017-04-08T00:33:17.844Z,0
2017-04-08T00:33:58.254Z,0
2017-04-08T00:34:38.667Z,0
2017-04-08T00:35:19.114Z,0
2017-04-08T00:35:59.639Z,0
2017-04-08T00:36:40.107Z,0
2017-04-08T00:37:20.618Z,0
2017-04-08T00:38:01.030Z,0
2017-04-08T00:38:41.509Z,0
2017-04-08T00:39:21.948Z,0
2017-04-08T00:40:02.480Z,0
2017-04-08T00:40:42.924Z,0
2017-04-08T00:41:23.397Z,0
2017-04-08T00:42:03.862Z,0
2017-04-08T00:42:44.339Z,0
2017-04-08T00:43:24.820Z,0
2017-04-08T00:46:02.936Z,0
2017-04-08T00:46:43.390Z,0
2017-04-08T00:47:23.907Z,0
2017-04-08T00:48:04.402Z,0
2017-04-08T00:48:44.885Z,0
2017-04-08T00:49:25.380Z,0
2017-04-08T00:50:05.867Z,0
2017-04-08T00:50:46.359Z,0
2017-04-08T00:51:26.863Z,0
2017-04-08T00:52:07.362Z,0
2017-04-08T00:52:48.328Z,0
2017-04-08T00:53:28.827Z,0
2017-04-08T00:54:09.306Z,0
2017-04-08T00:54:49.788Z,0
2017-04-08T00:55:30.256Z,0
2017-04-08T00:56:10.792Z,0
2017-04-08T00:56:51.248Z,0
2017-04-08T00:57:31.735Z,0
2017-04-08T00:58:12.262Z,0
2017-04-08T00:58:52.718Z,0
2017-04-08T00:59:33.192Z,0
2017-04-08T01:00:13.697Z,0
2017-04-08T01:00:54.818Z,0
2017-04-08T01:01:35.294Z,0
2017-04-08T01:02:15.769Z,0
2017-04-08T01:02:56.284Z,0
2017-04-08T01:03:36.810Z,0
2017-04-08T01:04:17.257Z,0
2017-04-08T01:04:57.746Z,0
2017-04-08T01:05:38.222Z,0
2017-04-08T01:06:18.699Z,0
2017-04-08T01:06:59.200Z,0
2017-04-08T01:07:39.765Z,0
2017-04-08T01:08:20.211Z,0
2017-04-08T01:09:00.725Z,0
2017-04-08T01:09:41.189Z,0
2017-04-08T01:12:19.276Z,0
2017-04-08T01:12:59.782Z,0
2017-04-08T01:13:40.284Z,0
2017-04-08T01:14:21.664Z,0
2017-04-08T01:15:02.173Z,0
2017-04-08T01:15:42.659Z,0
2017-04-08T01:18:15.716Z,0
2017-04-08T01:18:56.182Z,0
2017-04-08T01:19:36.639Z,0
2017-04-08T01:20:17.188Z,0
2017-04-08T01:20:57.600Z,0
2017-04-08T01:21:38.053Z,0
2017-04-08T01:22:18.537Z,0
2017-04-08T01:22:59.015Z,0
2017-04-08T01:23:39.459Z,0
2017-04-08T01:24:19.852Z,0
2017-04-08T01:25:00.342Z,0
2017-04-08T01:25:40.785Z,0
2017-04-08T01:26:21.252Z,0
2017-04-08T01:27:01.721Z,0
2017-04-08T01:27:42.133Z,0
2017-04-08T01:28:22.579Z,0
2017-04-08T01:30:55.590Z,0
2017-04-08T01:31:36.073Z,0
2017-04-08T01:32:16.582Z,0
2017-04-08T01:32:57.065Z,0
2017-04-08T01:33:37.577Z,0
2017-04-08T01:34:18.032Z,0
2017-04-08T01:34:58.513Z,0
2017-04-08T01:35:38.930Z,0
2017-04-08T01:36:19.368Z,0
2017-04-08T01:36:59.827Z,0
2017-04-08T01:37:40.270Z,0
2017-04-08T01:38:20.722Z,0
2017-04-08T01:40:48.702Z,0
2017-04-08T01:41:29.215Z,0
2017-04-08T01:42:09.680Z,0
2017-04-08T01:42:50.155Z,0
2017-04-08T01:43:30.672Z,0
2017-04-08T01:44:11.140Z,0
2017-04-08T01:44:51.614Z,0
2017-04-08T01:47:24.598Z,0
2017-04-08T01:48:05.092Z,0
2017-04-08T01:48:45.577Z,0
2017-04-08T01:49:26.015Z,0
2017-04-08T01:50:06.477Z,0
2017-04-08T01:50:46.913Z,0
2017-04-08T01:51:27.353Z,0
2017-04-08T01:52:07.864Z,0
2017-04-08T01:52:48.307Z,0
2017-04-08T01:53:28.767Z,0
2017-04-08T01:54:09.221Z,0
2017-04-08T01:56:27.038Z,0
2017-04-08T01:57:07.466Z,0
2017-04-08T01:57:47.967Z,0
2017-04-08T01:58:28.379Z,0
2017-04-08T01:59:08.815Z,0
2017-04-08T02:01:41.889Z,0
2017-04-08T02:02:22.352Z,0
2017-04-08T02:03:02.808Z,0
2017-04-08T02:03:43.231Z,0
2017-04-08T02:04:23.747Z,0
2017-04-08T02:05:04.169Z,0
2017-04-08T02:05:44.586Z,0
2017-04-08T02:06:25.062Z,0
2017-04-08T02:07:05.516Z,0
2017-04-08T02:07:46.001Z,0
2017-04-08T02:08:26.475Z,0
2017-04-08T02:09:06.885Z,0
2017-04-08T02:09:47.339Z,0
2017-04-08T02:10:27.777Z,0
2017-04-08T02:12:40.506Z,0
2017-04-08T02:13:21.050Z,0
2017-04-08T02:14:01.449Z,0
2017-04-08T02:14:41.928Z,0
2017-04-08T02:15:22.390Z,0
2017-04-08T02:16:02.878Z,0
2017-04-08T02:16:43.299Z,0
2017-04-08T02:17:23.749Z,0
2017-04-08T02:18:04.190Z,0
2017-04-08T02:18:44.661Z,0
2017-04-08T02:19:26.070Z,0
2017-04-08T02:21:43.965Z,0
2017-04-08T02:22:24.437Z,0
2017-04-08T02:23:04.952Z,0
2017-04-08T02:23:45.429Z,0
2017-04-08T02:24:25.868Z,0
2017-04-08T02:25:06.301Z,0
2017-04-08T02:25:46.784Z,0
2017-04-08T02:26:27.277Z,0
2017-04-08T02:29:00.236Z,0
2017-04-08T02:29:40.698Z,0
2017-04-08T02:30:21.195Z,0
2017-04-08T02:31:01.672Z,0
2017-04-08T02:31:42.147Z,0
2017-04-08T02:32:22.631Z,0
2017-04-08T02:33:03.145Z,0
2017-04-08T02:33:43.622Z,0
2017-04-08T02:34:24.093Z,0
2017-04-08T02:35:04.572Z,0
2017-04-08T02:35:45.073Z,0
2017-04-08T02:36:25.537Z,0
2017-04-08T02:37:06.033Z,0
2017-04-08T02:37:46.505Z,0
2017-04-08T02:38:27.018Z,0
2017-04-08T02:39:07.448Z,0
2017-04-08T02:41:25.255Z,0
2017-04-08T02:42:05.770Z,0
2017-04-08T02:42:46.204Z,0
2017-04-08T02:43:26.657Z,0
2017-04-08T02:45:39.401Z,0
2017-04-08T02:46:19.922Z,0
2017-04-08T02:47:00.348Z,0
2017-04-08T02:47:40.824Z,0
2017-04-08T02:48:21.282Z,0
2017-04-08T02:49:01.713Z,0
2017-04-08T02:49:42.197Z,0
2017-04-08T02:50:22.619Z,0
2017-04-08T02:51:03.094Z,0
2017-04-08T02:51:43.574Z,0
2017-04-08T02:52:23.991Z,0
2017-04-08T02:53:04.436Z,0
2017-04-08T02:53:44.892Z,0
2017-04-08T02:54:25.346Z,0
2017-04-08T02:55:05.787Z,0
2017-04-08T02:57:43.865Z,0
2017-04-08T02:58:24.369Z,0
2017-04-08T02:59:04.848Z,0
2017-04-08T02:59:45.273Z,0
2017-04-08T03:00:25.753Z,0
2017-04-08T03:02:53.763Z,0
2017-04-08T03:03:34.197Z,0
2017-04-08T03:04:14.734Z,0
2017-04-08T03:04:55.191Z,0
2017-04-08T03:05:36.495Z,0
2017-04-08T03:06:16.998Z,0
2017-04-08T03:06:57.523Z,0
2017-04-08T03:07:38.002Z,0
2017-04-08T03:08:18.464Z,0
2017-04-08T03:08:58.939Z,0
2017-04-08T03:09:39.400Z,0
2017-04-08T03:10:19.890Z,0
2017-04-08T03:11:00.329Z,0
2017-04-08T03:13:33.694Z,0
2017-04-08T03:14:14.857Z,0
2017-04-08T03:14:55.325Z,0
2017-04-08T03:15:35.849Z,0
2017-04-08T03:16:16.297Z,0
2017-04-08T03:16:56.704Z,0
2017-04-08T03:17:37.152Z,0
2017-04-08T03:18:17.626Z,0
2017-04-08T03:18:58.090Z,0
2017-04-08T03:19:38.514Z,0
2017-04-08T03:20:19.016Z,0
2017-04-08T03:20:59.433Z,0
2017-04-08T03:21:39.900Z,0
2017-04-08T03:22:20.365Z,0
2017-04-08T03:23:00.847Z,0
2017-04-08T03:25:18.696Z,0
2017-04-08T03:25:59.180Z,0
2017-04-08T03:26:39.658Z,0
2017-04-08T03:27:20.106Z,0
2017-04-08T03:28:00.586Z,0
2017-04-08T03:28:41.096Z,0
2017-04-08T03:29:21.550Z,0
2017-04-08T03:30:02.011Z,0
2017-04-08T03:30:42.484Z,0
2017-04-08T03:31:23.028Z,0
2017-04-08T03:32:03.447Z,0
2017-04-08T03:32:43.905Z,0
2017-04-08T03:33:24.340Z,0
2017-04-08T03:35:42.158Z,0
2017-04-08T03:36:22.692Z,0
2017-04-08T03:37:03.165Z,0
2017-04-08T03:37:43.657Z,0
2017-04-08T03:38:24.130Z,0
2017-04-08T03:39:04.597Z,0
2017-04-08T03:39:45.081Z,0
2017-04-08T03:40:25.551Z,0
2017-04-08T03:41:06.010Z,0
2017-04-08T03:41:46.489Z,0
2017-04-08T03:42:26.967Z,0
2017-04-08T03:43:07.507Z,0
2017-04-08T03:43:47.940Z,0
2017-04-08T03:44:28.393Z,0
2017-04-08T03:45:08.849Z,0
2017-04-08T03:45:49.280Z,0
2017-04-08T03:46:29.709Z,0
2017-04-08T03:47:10.133Z,0
2017-04-08T03:47:50.612Z,0
2017-04-08T03:48:31.067Z,0
2017-04-08T03:49:11.509Z,0
2017-04-08T03:49:51.986Z,0
2017-04-08T03:50:32.442Z,0
2017-04-08T03:51:12.900Z,0
2017-04-08T03:51:53.332Z,0
2017-04-08T03:52:33.786Z,0
2017-04-08T03:53:14.217Z,0
2017-04-08T03:53:54.706Z,0
2017-04-08T03:54:35.147Z,0
2017-04-08T03:55:15.577Z,0
2017-04-08T03:57:43.514Z,0
2017-04-08T03:58:24.008Z,0
2017-04-08T03:59:04.501Z,0
2017-04-08T03:59:44.951Z,0
2017-04-08T04:00:25.442Z,0
2017-04-08T04:01:05.929Z,0
2017-04-08T04:01:46.422Z,0
2017-04-08T04:02:26.894Z,0
2017-04-08T04:03:07.364Z,0
2017-04-08T04:03:47.881Z,0
2017-04-08T04:04:28.352Z,0
2017-04-08T04:05:08.859Z,0
2017-04-08T04:05:49.381Z,0
2017-04-08T04:06:29.837Z,0
2017-04-08T04:07:10.324Z,0
2017-04-08T04:07:50.762Z,0
2017-04-08T04:08:31.232Z,0
2017-04-08T04:09:11.690Z,0
2017-04-08T04:09:52.146Z,0
2017-04-08T04:10:32.595Z,0
2017-04-08T04:11:13.065Z,0
2017-04-08T04:11:53.511Z,0
2017-04-08T04:12:33.969Z,0
2017-04-08T04:13:14.435Z,0
2017-04-08T04:13:54.876Z,0
2017-04-08T04:14:35.347Z,0
2017-04-08T04:17:03.271Z,0
2017-04-08T04:17:43.780Z,0
2017-04-08T04:18:24.266Z,0
2017-04-08T04:19:04.767Z,0
2017-04-08T04:19:45.254Z,0
2017-04-08T04:20:25.754Z,0
2017-04-08T04:21:06.208Z,0
2017-04-08T04:21:46.700Z,0
2017-04-08T04:22:27.165Z,0
2017-04-08T04:23:07.651Z,0
2017-04-08T04:23:48.159Z,0
2017-04-08T04:24:28.667Z,0
2017-04-08T04:25:09.112Z,0
2017-04-08T04:25:49.583Z,0
2017-04-08T04:26:30.069Z,0
2017-04-08T04:27:10.569Z,0
2017-04-08T04:27:51.039Z,0
2017-04-08T04:28:31.532Z,0
2017-04-08T04:29:12.001Z,0
2017-04-08T04:29:52.457Z,0
2017-04-08T04:30:32.892Z,0
2017-04-08T04:31:13.386Z,0
2017-04-08T04:33:26.128Z,0
2017-04-08T04:34:06.588Z,0
2017-04-08T04:34:47.050Z,0
2017-04-08T04:35:27.539Z,0
2017-04-08T04:36:08.026Z,0
2017-04-08T04:36:48.560Z,0
2017-04-08T04:37:29.002Z,0
2017-04-08T04:38:09.502Z,0
2017-04-08T04:38:50.090Z,0
2017-04-08T04:39:30.524Z,0
2017-04-08T04:40:10.957Z,0
2017-04-08T04:40:51.396Z,0
2017-04-08T04:41:31.885Z,0
2017-04-08T04:42:12.330Z,0
2017-04-08T04:42:52.828Z,0
2017-04-08T04:45:10.681Z,0
2017-04-08T04:45:51.112Z,5
2017-04-08T04:46:31.519Z,5
2017-04-08T04:47:11.933Z,5
2017-04-08T04:47:52.407Z,5
2017-04-08T04:48:32.854Z,5
2017-04-08T04:49:13.313Z,5
2017-04-08T04:51:31.127Z,5
2017-04-08T04:52:11.621Z,5
2017-04-08T04:52:52.122Z,10
2017-04-08T04:53:32.543Z,10
2017-04-08T04:54:13.007Z,10
2017-04-08T04:54:53.455Z,10
2017-04-08T04:55:33.917Z,10
2017-04-08T04:56:14.366Z,10
2017-04-08T04:56:54.837Z,10
2017-04-08T04:57:35.335Z,10
2017-04-08T04:58:15.801Z,15
2017-04-08T04:58:56.266Z,15
2017-04-08T04:59:36.718Z,15
2017-04-08T05:00:17.158Z,15
2017-04-08T05:00:57.550Z,15
2017-04-08T05:01:37.993Z,15
2017-04-08T05:04:16.043Z,20
2017-04-08T05:04:56.539Z,20
2017-04-08T05:05:37.048Z,20
2017-04-08T05:06:17.537Z,20
2017-04-08T05:06:58.041Z,25
2017-04-08T05:07:38.523Z,25
2017-04-08T05:08:19.027Z,25
2017-04-08T05:08:59.519Z,25
2017-04-08T05:09:40.022Z,25
2017-04-08T05:10:20.495Z,30
2017-04-08T05:11:00.979Z,30
2017-04-08T05:11:41.495Z,30
2017-04-08T05:12:21.980Z,30
2017-04-08T05:13:02.453Z,30
2017-04-08T05:13:42.937Z,30
2017-04-08T05:14:23.426Z,35
2017-04-08T05:15:03.896Z,35
2017-04-08T05:15:44.373Z,35
2017-04-08T05:16:24.849Z,35
2017-04-08T05:17:05.339Z,40
2017-04-08T05:17:45.821Z,40
2017-04-08T05:18:26.250Z,40
2017-04-08T05:19:06.721Z,40
2017-04-08T05:19:47.224Z,40
2017-04-08T05:20:27.713Z,45
2017-04-08T05:21:08.203Z,45
2017-04-08T05:21:48.687Z,45
2017-04-08T05:22:29.161Z,45
2017-04-08T05:23:09.634Z,50
2017-04-08T05:23:50.108Z,50
2017-04-08T05:24:30.577Z,50
2017-04-08T05:25:11.063Z,50
2017-04-08T05:25:51.552Z,50
2017-04-08T05:26:32.051Z,55
2017-04-08T05:27:12.517Z,55
2017-04-08T05:27:53.064Z,55
2017-04-08T05:28:33.548Z,55
2017-04-08T05:29:14.037Z,60
2017-04-08T05:29:54.545Z,60
2017-04-08T05:30:35.024Z,60
2017-04-08T05:31:15.526Z,60
2017-04-08T05:31:55.979Z,65
2017-04-08T05:32:36.421Z,65
2017-04-08T05:33:16.910Z,65
2017-04-08T05:33:57.376Z,65
2017-04-08T05:34:37.846Z,65
2017-04-08T05:35:18.282Z,70
2017-04-08T05:35:58.710Z,70
2017-04-08T05:36:39.160Z,70
2017-04-08T05:37:19.609Z,70
2017-04-08T05:38:00.110Z,75
2017-04-08T05:38:40.552Z,75
2017-04-08T05:41:19.083Z,80
2017-04-08T05:41:59.517Z,80
2017-04-08T05:42:39.954Z,80
2017-04-08T05:43:20.399Z,85
2017-04-08T05:44:00.845Z,85
2017-04-08T05:44:41.301Z,85
2017-04-08T05:45:21.724Z,85
2017-04-08T05:46:02.154Z,90
2017-04-08T05:46:42.619Z,90
2017-04-08T05:47:23.080Z,90
2017-04-08T05:48:03.532Z,90
2017-04-08T05:48:44.002Z,90
2017-04-08T05:49:24.433Z,95
2017-04-08T05:50:04.912Z,100
2017-04-08T05:50:45.361Z,100
2017-04-08T05:51:25.832Z,105
2017-04-08T05:52:06.278Z,105
2017-04-08T05:52:46.735Z,105
2017-04-08T05:53:27.205Z,110
2017-04-08T05:54:07.672Z,110
2017-04-08T05:54:48.120Z,110
2017-04-08T05:55:29.245Z,115
2017-04-08T05:56:09.730Z,115
2017-04-08T05:56:50.176Z,115
2017-04-08T05:59:02.905Z,120
2017-04-08T05:59:43.442Z,125
2017-04-08T06:00:23.831Z,125
2017-04-08T06:01:04.308Z,130
2017-04-08T06:01:44.793Z,130
2017-04-08T06:02:25.266Z,130
2017-04-08T06:03:05.758Z,135
2017-04-08T06:03:46.287Z,135
2017-04-08T06:04:26.720Z,140
2017-04-08T06:05:07.210Z,140
2017-04-08T06:05:47.712Z,140
2017-04-08T06:06:28.222Z,145
2017-04-08T06:07:08.716Z,145
2017-04-08T06:07:49.182Z,145
2017-04-08T06:08:29.669Z,150
2017-04-08T06:09:10.151Z,150
2017-04-08T06:09:50.626Z,150
2017-04-08T06:10:31.113Z,150
2017-04-08T06:11:11.576Z,155
2017-04-08T06:11:52.047Z,155
2017-04-08T06:12:32.553Z,160
2017-04-08T06:13:13.046Z,160
2017-04-08T06:13:53.505Z,160
2017-04-08T06:14:33.984Z,165
2017-04-08T06:15:14.457Z,165
2017-04-08T06:15:54.937Z,170
2017-04-08T06:16:35.439Z,170
2017-04-08T06:17:15.952Z,170
2017-04-08T06:17:56.500Z,175
2017-04-08T06:18:37.000Z,175
2017-04-08T06:19:17.482Z,180
2017-04-08T06:19:57.947Z,180
2017-04-08T06:20:38.404Z,180
2017-04-08T06:21:18.858Z,185
2017-04-08T06:23:31.591Z,195
2017-04-08T06:24:12.056Z,190
2017-04-08T06:24:52.529Z,180
2017-04-08T06:25:33.014Z,170
2017-04-08T06:26:13.470Z,160
2017-04-08T06:26:53.962Z,160
2017-04-08T06:27:34.469Z,160
2017-04-08T06:30:07.530Z,165
2017-04-08T06:30:48.076Z,165
2017-04-08T06:31:28.493Z,170
2017-04-08T06:32:08.956Z,170
2017-04-08T06:32:49.442Z,170
2017-04-08T06:33:29.887Z,170
2017-04-08T06:34:10.385Z,175
2017-04-08T06:34:50.944Z,190
2017-04-08T06:35:31.447Z,205
2017-04-08T06:36:11.916Z,220
2017-04-08T06:36:52.415Z,220
2017-04-08T06:37:32.915Z,200
2017-04-08T06:38:13.391Z,185
2017-04-08T06:38:53.871Z,180
2017-04-08T06:39:34.339Z,185
2017-04-08T06:40:14.836Z,185
2017-04-08T06:40:55.335Z,185
2017-04-08T06:41:35.815Z,185
2017-04-08T06:42:16.341Z,185
2017-04-08T06:42:56.795Z,190
2017-04-08T06:43:37.315Z,190
2017-04-08T06:44:17.719Z,195
2017-04-08T06:44:58.175Z,195
2017-04-08T06:45:38.625Z,195
2017-04-08T06:46:19.091Z,200
2017-04-08T06:46:59.561Z,220
2017-04-08T06:47:40.014Z,250
2017-04-08T06:49:57.842Z,300
2017-04-08T06:50:38.318Z,305
2017-04-08T06:51:18.814Z,305
2017-04-08T06:51:59.246Z,310
2017-04-08T06:52:39.751Z,315
2017-04-08T06:53:20.236Z,315
2017-04-08T06:54:00.751Z,320
2017-04-08T06:54:41.233Z,320
2017-04-08T06:55:21.731Z,325
2017-04-08T06:56:02.206Z,325
2017-04-08T06:56:42.689Z,330
2017-04-08T06:57:23.161Z,335
2017-04-08T06:58:03.654Z,335
2017-04-08T06:58:44.128Z,335
2017-04-08T06:59:24.605Z,340
2017-04-08T07:00:05.084Z,345
2017-04-08T07:00:45.560Z,350
2017-04-08T07:01:26.032Z,350
2017-04-08T07:02:06.495Z,360
2017-04-08T07:02:46.968Z,360
2017-04-08T07:03:27.459Z,365
2017-04-08T07:04:07.929Z,370
2017-04-08T07:04:48.366Z,370
2017-04-08T07:05:28.864Z,375
2017-04-08T07:06:09.366Z,380
2017-04-08T07:06:49.845Z,385
2017-04-08T07:07:30.338Z,390
2017-04-08T07:08:10.846Z,405
2017-04-08T07:08:51.311Z,405
2017-04-08T07:09:31.827Z,405
2017-04-08T07:10:12.326Z,410
2017-04-08T07:10:52.833Z,420
2017-04-08T07:11:33.323Z,420
2017-04-08T07:12:13.834Z,425
2017-04-08T07:12:54.282Z,430
2017-04-08T07:13:34.832Z,430
2017-04-08T07:14:15.270Z,435
2017-04-08T07:14:55.755Z,440
2017-04-08T07:15:36.248Z,455
2017-04-08T07:16:16.740Z,455
2017-04-08T07:16:57.252Z,465
2017-04-08T07:17:37.720Z,465
2017-04-08T07:18:18.207Z,470
2017-04-08T07:18:58.695Z,480
2017-04-08T07:19:39.184Z,485
2017-04-08T07:20:19.690Z,495
2017-04-08T07:21:00.207Z,505
2017-04-08T07:21:40.686Z,505
2017-04-08T07:22:21.184Z,510
2017-04-08T07:23:01.682Z,515
2017-04-08T07:23:42.156Z,515
2017-04-08T07:24:22.661Z,520
2017-04-08T07:25:03.136Z,530
2017-04-08T07:25:43.632Z,545
2017-04-08T07:26:24.118Z,555
2017-04-08T07:27:04.602Z,560
2017-04-08T07:27:45.107Z,575
2017-04-08T07:28:25.574Z,580
2017-04-08T07:29:06.079Z,590
2017-04-08T07:29:46.534Z,605
2017-04-08T07:30:27.013Z,605
2017-04-08T07:31:07.500Z,615
2017-04-08T07:31:48.013Z,620
2017-04-08T07:32:28.480Z,630
2017-04-08T07:33:08.981Z,645
2017-04-08T07:33:49.448Z,655
2017-04-08T07:34:29.997Z,675
2017-04-08T07:35:10.474Z,695
2017-04-08T07:35:50.971Z,710
2017-04-08T07:36:31.431Z,725
2017-04-08T07:37:11.935Z,735
2017-04-08T07:37:52.421Z,750
2017-04-08T07:38:33.006Z,765
2017-04-08T07:39:13.430Z,780
2017-04-08T07:39:53.916Z,800
2017-04-08T07:40:34.392Z,815
2017-04-08T07:41:14.893Z,825
2017-04-08T07:41:55.360Z,850
2017-04-08T07:42:35.868Z,855
2017-04-08T07:43:16.363Z,870
2017-04-08T07:43:56.815Z,890
2017-04-08T07:44:37.246Z,905
2017-04-08T07:45:17.695Z,925
2017-04-08T07:45:58.177Z,935
2017-04-08T07:48:26.118Z,990
2017-04-08T07:49:06.569Z,1005
2017-04-08T07:49:47.036Z,1020
2017-04-08T07:50:27.471Z,1025
2017-04-08T07:51:07.901Z,1045
2017-04-08T07:51:48.395Z,1055
2017-04-08T07:54:16.314Z,1085
2017-04-08T07:54:56.810Z,1095
2017-04-08T07:55:37.271Z,1100
2017-04-08T07:56:17.776Z,1100
2017-04-08T07:56:58.278Z,1095
2017-04-08T07:57:38.770Z,1095
2017-04-08T07:58:19.253Z,1095
2017-04-08T07:58:59.729Z,1105
2017-04-08T07:59:40.232Z,1095
2017-04-08T08:00:20.723Z,1100
2017-04-08T08:01:01.236Z,1095
2017-04-08T08:01:41.723Z,1100
2017-04-08T08:02:22.202Z,1095
2017-04-08T08:03:02.675Z,1075
2017-04-08T08:03:44.036Z,1055
2017-04-08T08:04:24.543Z,1040
2017-04-08T08:05:05.026Z,1045
2017-04-08T08:05:45.522Z,1035
2017-04-08T08:06:26.038Z,1040
2017-04-08T08:07:06.489Z,1040
2017-04-08T08:07:46.961Z,1030
2017-04-08T08:08:27.465Z,1020
2017-04-08T08:09:07.933Z,995
2017-04-08T08:09:48.417Z,985
2017-04-08T08:10:28.882Z,955
2017-04-08T08:13:01.887Z,875
2017-04-08T08:13:42.410Z,860
2017-04-08T08:16:10.412Z,735
2017-04-08T08:16:50.902Z,710
2017-04-08T08:17:31.377Z,690
2017-04-08T08:18:11.877Z,670
2017-04-08T08:18:52.334Z,645
2017-04-08T08:19:32.804Z,615
2017-04-08T08:20:13.308Z,595
2017-04-08T08:20:53.747Z,575
2017-04-08T08:21:34.189Z,560
2017-04-08T08:22:14.620Z,555
2017-04-08T08:22:55.053Z,550
2017-04-08T08:23:35.502Z,545
2017-04-08T08:24:15.925Z,545
2017-04-08T08:24:56.376Z,545
2017-04-08T08:25:36.848Z,545
2017-04-08T08:26:17.293Z,545
2017-04-08T08:26:57.794Z,550
2017-04-08T08:27:38.203Z,550
2017-04-08T08:28:18.673Z,555
2017-04-08T08:28:59.125Z,555
2017-04-08T08:29:39.592Z,560
2017-04-08T08:30:20.045Z,565
2017-04-08T08:31:00.526Z,570
2017-04-08T08:31:40.967Z,580
2017-04-08T08:32:21.374Z,585
2017-04-08T08:33:01.820Z,600
2017-04-08T08:33:42.282Z,620
2017-04-08T08:34:22.735Z,650
2017-04-08T08:35:03.215Z,780
2017-04-08T08:35:43.696Z,1045
2017-04-08T08:36:24.126Z,1335
2017-04-08T08:37:04.603Z,1580
2017-04-08T08:37:45.067Z,1720
2017-04-08T08:38:25.542Z,1770
2017-04-08T08:39:05.993Z,1810
2017-04-08T08:39:46.470Z,1820
2017-04-08T08:40:26.910Z,1850
2017-04-08T08:41:07.386Z,1840
2017-04-08T08:41:47.832Z,1745
2017-04-08T08:42:28.287Z,1730
2017-04-08T08:43:09.663Z,1750
2017-04-08T08:43:50.144Z,1815
2017-04-08T08:44:30.591Z,1830
2017-04-08T08:45:11.051Z,1830
2017-04-08T08:45:52.465Z,1770
2017-04-08T08:46:32.942Z,1775
2017-04-08T08:47:13.497Z,1775
2017-04-08T08:47:53.963Z,1805
2017-04-08T08:48:34.463Z,1845
2017-04-08T08:49:14.917Z,1855
2017-04-08T08:49:55.387Z,1875
2017-04-08T08:50:35.828Z,1890
2017-04-08T08:51:16.289Z,1890
2017-04-08T08:51:56.754Z,1840
2017-04-08T08:52:37.207Z,1805
2017-04-08T08:53:17.664Z,1790
2017-04-08T08:53:58.132Z,1830
2017-04-08T08:54:38.582Z,1880
2017-04-08T08:55:19.033Z,1910
2017-04-08T08:55:59.495Z,1955
2017-04-08T08:56:39.978Z,1910
2017-04-08T08:57:20.417Z,1815
2017-04-08T08:58:00.886Z,1720
2017-04-08T08:58:41.382Z,1755
2017-04-08T08:59:21.793Z,1820
2017-04-08T09:00:02.245Z,1925
2017-04-08T09:00:42.742Z,1930
2017-04-08T09:01:23.175Z,1920
2017-04-08T09:02:03.670Z,1985
2017-04-08T09:02:44.120Z,1925
2017-04-08T09:03:24.580Z,1905
2017-04-08T09:04:05.012Z,1905
2017-04-08T09:04:45.474Z,1965
2017-04-08T09:05:25.913Z,2000
2017-04-08T09:06:06.392Z,2010
2017-04-08T09:06:46.875Z,2005
2017-04-08T09:07:27.350Z,2015
2017-04-08T09:08:07.824Z,1980
2017-04-08T09:08:49.175Z,2005
2017-04-08T09:09:29.643Z,1975
2017-04-08T09:10:10.092Z,1955
2017-04-08T09:10:50.550Z,2000
2017-04-08T09:11:30.993Z,1995
2017-04-08T09:13:43.749Z,1405
2017-04-08T09:14:24.250Z,880
2017-04-08T09:15:04.755Z,640
2017-04-08T09:15:45.239Z,620
2017-04-08T09:16:25.698Z,625
2017-04-08T09:17:06.188Z,630
2017-04-08T09:17:46.633Z,630
2017-04-08T09:18:27.118Z,640
2017-04-08T09:19:07.584Z,645
2017-04-08T09:21:45.709Z,685
2017-04-08T09:22:26.195Z,835
2017-04-08T09:23:06.675Z,1355
2017-04-08T09:23:47.150Z,1905
2017-04-08T09:24:27.718Z,2190
2017-04-08T09:25:08.170Z,2180
2017-04-08T09:25:48.686Z,2130
2017-04-08T09:26:29.133Z,2115
2017-04-08T09:27:09.609Z,2125
2017-04-08T09:27:50.132Z,2140
2017-04-08T09:28:30.644Z,2110
2017-04-08T09:29:11.165Z,2115
2017-04-08T09:31:39.106Z,2205
2017-04-08T09:32:19.615Z,2195
2017-04-08T09:33:00.103Z,2225
2017-04-08T09:33:40.664Z,2305
2017-04-08T09:34:21.166Z,2365
2017-04-08T09:35:01.673Z,2390
2017-04-08T09:35:42.170Z,2415
2017-04-08T09:36:22.668Z,2395
2017-04-08T09:37:03.164Z,2375
2017-04-08T09:37:43.660Z,2370
2017-04-08T09:38:24.124Z,2390
2017-04-08T09:39:04.572Z,2425
2017-04-08T09:39:45.042Z,2410
2017-04-08T09:40:25.529Z,2450
2017-04-08T09:41:05.976Z,2415
2017-04-08T09:41:46.413Z,2375
2017-04-08T09:42:26.864Z,2355
2017-04-08T09:43:07.327Z,2320
2017-04-08T09:43:47.789Z,2375
2017-04-08T09:46:25.906Z,2420
2017-04-08T09:47:06.443Z,2385
2017-04-08T09:47:46.929Z,2400
2017-04-08T09:48:27.430Z,2390
2017-04-08T09:49:07.918Z,2430
2017-04-08T09:49:48.389Z,2460
2017-04-08T09:50:28.905Z,2450
2017-04-08T09:51:09.387Z,2400
2017-04-08T09:51:49.894Z,2370
2017-04-08T09:52:30.396Z,2365
2017-04-08T09:53:10.902Z,2425
2017-04-08T09:53:51.377Z,2485
2017-04-08T09:54:31.900Z,2470
2017-04-08T09:55:12.357Z,2425
2017-04-08T09:55:52.841Z,2380
2017-04-08T09:56:33.262Z,2345
2017-04-08T09:57:13.724Z,2350
2017-04-08T09:57:54.194Z,2325
2017-04-08T09:58:34.622Z,2300
2017-04-08T09:59:15.068Z,2250
2017-04-08T09:59:55.497Z,2330
2017-04-08T10:00:35.967Z,2355
2017-04-08T10:01:16.428Z,2365
2017-04-08T10:01:56.901Z,2360
2017-04-08T10:02:37.328Z,2335
2017-04-08T10:03:17.792Z,2295
2017-04-08T10:03:58.251Z,2275
2017-04-08T10:04:38.699Z,2240
2017-04-08T10:05:19.169Z,2090
2017-04-08T10:05:59.661Z,1610
2017-04-08T10:06:40.122Z,1010
2017-04-08T10:07:20.544Z,740
2017-04-08T10:08:01.007Z,730
2017-04-08T10:08:41.463Z,725
2017-04-08T10:09:21.880Z,715
2017-04-08T10:10:02.335Z,660
2017-04-08T10:10:42.790Z,620
2017-04-08T10:11:23.227Z,590
2017-04-08T10:12:03.740Z,575
2017-04-08T10:12:44.244Z,570
2017-04-08T10:13:24.709Z,565
2017-04-08T10:14:05.164Z,565
2017-04-08T10:14:45.631Z,560
2017-04-08T10:17:23.789Z,560
2017-04-08T10:18:04.282Z,560
2017-04-08T10:18:44.788Z,565
2017-04-08T10:19:25.285Z,565
2017-04-08T10:20:05.702Z,565
2017-04-08T10:20:46.166Z,565
2017-04-08T10:23:19.174Z,590
2017-04-08T10:23:59.645Z,600
2017-04-08T10:24:40.147Z,615
2017-04-08T10:25:20.704Z,890
2017-04-08T10:26:01.219Z,1695
2017-04-08T10:26:41.685Z,2460
2017-04-08T10:27:22.230Z,2695
2017-04-08T10:28:02.691Z,2675
2017-04-08T10:28:43.179Z,2635
2017-04-08T10:29:23.631Z,2625
2017-04-08T10:30:04.126Z,2660
2017-04-08T10:32:42.269Z,2800
2017-04-08T10:33:22.771Z,2835
2017-04-08T10:34:03.262Z,2845
2017-04-08T10:34:43.731Z,2795
2017-04-08T10:35:24.297Z,2780
2017-04-08T10:36:04.781Z,2800
2017-04-08T10:36:45.283Z,2845
2017-04-08T10:39:18.524Z,2760
2017-04-08T10:39:58.979Z,2735
2017-04-08T10:40:39.521Z,2735
2017-04-08T10:41:20.087Z,2715
2017-04-08T10:42:00.556Z,2690
2017-04-08T10:42:41.056Z,2675
2017-04-08T10:43:21.512Z,2685
2017-04-08T10:44:01.967Z,2630
2017-04-08T10:44:43.161Z,2625
2017-04-08T10:45:32.922Z,2670